sensor_id;sensor_type;location;lat;lon;timestamp;P1;durP1;ratioP1;P2;durP2;ratioP2
9960;SDS011;5021;51.506;11.320;2023-03-01T00:01:58;9.43;;;8.10;;
9960;SDS011;5021;51.506;11.320;2023-03-01T00:04:24;10.60;;;8.73;;
9960;SDS011;5021;51.506;11.320;2023-03-01T00:06:49;12.37;;;9.00;;
9960;SDS011;5021;51.506;11.320;2023-03-01T00:09:15;11.27;;;8.47;;
9960;SDS011;5021;51.506;11.320;2023-03-01T00:11:42;12.17;;;8.33;;
9960;SDS011;5021;51.506;11.320;2023-03-01T00:14:08;10.53;;;8.67;;
9960;SDS011;5021;51.506;11.320;2023-03-01T00:16:38;9.57;;;7.60;;
9960;SDS011;5021;51.506;11.320;2023-03-01T00:19:04;11.57;;;8.63;;
9960;SDS011;5021;51.506;11.320;2023-03-01T00:21:30;13.33;;;8.47;;
9960;SDS011;5021;51.506;11.320;2023-03-01T00:23:56;10.30;;;8.07;;
9960;SDS011;5021;51.506;11.320;2023-03-01T00:26:23;11.60;;;8.43;;
9960;SDS011;5021;51.506;11.320;2023-03-01T00:28:50;13.00;;;8.77;;
9960;SDS011;5021;51.506;11.320;2023-03-01T00:31:20;13.37;;;9.00;;
9960;SDS011;5021;51.506;11.320;2023-03-01T00:33:46;13.63;;;9.50;;
9960;SDS011;5021;51.506;11.320;2023-03-01T00:36:12;12.73;;;9.40;;
9960;SDS011;5021;51.506;11.320;2023-03-01T00:38:40;11.07;;;8.83;;
9960;SDS011;5021;51.506;11.320;2023-03-01T00:41:07;11.83;;;8.87;;
9960;SDS011;5021;51.506;11.320;2023-03-01T00:43:33;10.47;;;8.17;;
9960;SDS011;5021;51.506;11.320;2023-03-01T00:46:01;11.63;;;9.10;;
9960;SDS011;5021;51.506;11.320;2023-03-01T00:48:28;9.07;;;7.87;;
9960;SDS011;5021;51.506;11.320;2023-03-01T00:50:54;10.13;;;8.10;;
9960;SDS011;5021;51.506;11.320;2023-03-01T00:53:19;11.33;;;8.63;;
9960;SDS011;5021;51.506;11.320;2023-03-01T00:55:45;11.13;;;8.83;;
9960;SDS011;5021;51.506;11.320;2023-03-01T00:58:11;12.57;;;8.50;;
9960;SDS011;5021;51.506;11.320;2023-03-01T01:00:37;11.80;;;9.00;;
9960;SDS011;5021;51.506;11.320;2023-03-01T01:03:03;11.47;;;8.33;;
9960;SDS011;5021;51.506;11.320;2023-03-01T01:05:29;10.30;;;7.77;;
9960;SDS011;5021;51.506;11.320;2023-03-01T01:07:55;13.33;;;8.57;;
9960;SDS011;5021;51.506;11.320;2023-03-01T01:10:21;11.47;;;7.20;;
9960;SDS011;5021;51.506;11.320;2023-03-01T01:12:47;11.83;;;8.27;;
9960;SDS011;5021;51.506;11.320;2023-03-01T01:15:13;12.17;;;8.07;;
9960;SDS011;5021;51.506;11.320;2023-03-01T01:17:41;12.27;;;8.50;;
9960;SDS011;5021;51.506;11.320;2023-03-01T01:20:07;11.73;;;8.47;;
9960;SDS011;5021;51.506;11.320;2023-03-01T01:22:33;12.23;;;8.30;;
9960;SDS011;5021;51.506;11.320;2023-03-01T01:24:59;11.53;;;8.87;;
9960;SDS011;5021;51.506;11.320;2023-03-01T01:27:25;14.57;;;8.57;;
9960;SDS011;5021;51.506;11.320;2023-03-01T01:29:52;11.50;;;7.50;;
9960;SDS011;5021;51.506;11.320;2023-03-01T01:32:18;9.60;;;7.70;;
9960;SDS011;5021;51.506;11.320;2023-03-01T01:34:44;10.60;;;8.30;;
9960;SDS011;5021;51.506;11.320;2023-03-01T01:37:11;11.73;;;9.23;;
9960;SDS011;5021;51.506;11.320;2023-03-01T01:39:37;9.10;;;7.90;;
9960;SDS011;5021;51.506;11.320;2023-03-01T01:42:03;12.90;;;7.80;;
9960;SDS011;5021;51.506;11.320;2023-03-01T01:44:29;13.10;;;8.57;;
9960;SDS011;5021;51.506;11.320;2023-03-01T01:49:26;10.57;;;8.13;;
9960;SDS011;5021;51.506;11.320;2023-03-01T01:51:55;11.67;;;7.60;;
9960;SDS011;5021;51.506;11.320;2023-03-01T01:54:24;8.70;;;7.53;;
9960;SDS011;5021;51.506;11.320;2023-03-01T01:56:55;9.03;;;6.70;;
9960;SDS011;5021;51.506;11.320;2023-03-01T01:59:21;9.73;;;7.73;;
9960;SDS011;5021;51.506;11.320;2023-03-01T02:01:49;9.70;;;7.47;;
9960;SDS011;5021;51.506;11.320;2023-03-01T02:04:15;8.87;;;7.47;;
9960;SDS011;5021;51.506;11.320;2023-03-01T02:06:44;10.03;;;7.73;;
9960;SDS011;5021;51.506;11.320;2023-03-01T02:09:11;10.43;;;7.73;;
9960;SDS011;5021;51.506;11.320;2023-03-01T02:11:38;7.90;;;6.63;;
9960;SDS011;5021;51.506;11.320;2023-03-01T02:14:04;9.83;;;7.00;;
9960;SDS011;5021;51.506;11.320;2023-03-01T02:16:30;10.40;;;7.63;;
9960;SDS011;5021;51.506;11.320;2023-03-01T02:18:56;9.23;;;7.23;;
9960;SDS011;5021;51.506;11.320;2023-03-01T02:24:48;10.57;;;7.40;;
9960;SDS011;5021;51.506;11.320;2023-03-01T02:27:16;8.73;;;7.40;;
9960;SDS011;5021;51.506;11.320;2023-03-01T02:29:42;8.37;;;7.53;;
9960;SDS011;5021;51.506;11.320;2023-03-01T02:32:09;10.77;;;8.10;;
9960;SDS011;5021;51.506;11.320;2023-03-01T02:34:35;10.83;;;7.30;;
9960;SDS011;5021;51.506;11.320;2023-03-01T02:37:06;10.17;;;7.70;;
9960;SDS011;5021;51.506;11.320;2023-03-01T02:39:34;11.37;;;7.50;;
9960;SDS011;5021;51.506;11.320;2023-03-01T02:42:06;12.07;;;7.67;;
9960;SDS011;5021;51.506;11.320;2023-03-01T02:44:32;10.13;;;7.53;;
9960;SDS011;5021;51.506;11.320;2023-03-01T02:46:58;9.87;;;7.17;;
9960;SDS011;5021;51.506;11.320;2023-03-01T02:49:28;10.17;;;7.27;;
9960;SDS011;5021;51.506;11.320;2023-03-01T02:54:25;8.63;;;6.93;;
9960;SDS011;5021;51.506;11.320;2023-03-01T02:56:52;8.57;;;7.10;;
9960;SDS011;5021;51.506;11.320;2023-03-01T02:59:19;9.50;;;7.27;;
9960;SDS011;5021;51.506;11.320;2023-03-01T03:01:46;12.30;;;7.10;;
9960;SDS011;5021;51.506;11.320;2023-03-01T03:04:16;9.17;;;7.40;;
9960;SDS011;5021;51.506;11.320;2023-03-01T03:06:45;13.63;;;8.50;;
9960;SDS011;5021;51.506;11.320;2023-03-01T03:09:12;9.60;;;7.70;;
9960;SDS011;5021;51.506;11.320;2023-03-01T03:11:38;10.07;;;7.50;;
9960;SDS011;5021;51.506;11.320;2023-03-01T03:14:05;10.47;;;7.50;;
9960;SDS011;5021;51.506;11.320;2023-03-01T03:16:37;10.63;;;7.70;;
9960;SDS011;5021;51.506;11.320;2023-03-01T03:19:03;10.23;;;7.70;;
9960;SDS011;5021;51.506;11.320;2023-03-01T03:21:32;10.43;;;7.27;;
9960;SDS011;5021;51.506;11.320;2023-03-01T03:23:58;9.53;;;7.30;;
9960;SDS011;5021;51.506;11.320;2023-03-01T03:26:24;9.40;;;7.17;;
9960;SDS011;5021;51.506;11.320;2023-03-01T03:28:50;10.40;;;7.13;;
9960;SDS011;5021;51.506;11.320;2023-03-01T03:31:16;11.27;;;7.67;;
9960;SDS011;5021;51.506;11.320;2023-03-01T03:33:42;9.67;;;6.97;;
9960;SDS011;5021;51.506;11.320;2023-03-01T03:36:08;9.40;;;7.53;;
9960;SDS011;5021;51.506;11.320;2023-03-01T03:38:38;12.40;;;7.37;;
9960;SDS011;5021;51.506;11.320;2023-03-01T03:41:04;12.20;;;7.50;;
9960;SDS011;5021;51.506;11.320;2023-03-01T03:43:32;9.97;;;7.30;;
9960;SDS011;5021;51.506;11.320;2023-03-01T03:45:58;11.77;;;8.23;;
9960;SDS011;5021;51.506;11.320;2023-03-01T03:48:24;9.70;;;7.27;;
9960;SDS011;5021;51.506;11.320;2023-03-01T03:50:52;10.37;;;7.50;;
9960;SDS011;5021;51.506;11.320;2023-03-01T03:53:18;10.43;;;7.43;;
9960;SDS011;5021;51.506;11.320;2023-03-01T03:55:45;9.40;;;7.20;;
9960;SDS011;5021;51.506;11.320;2023-03-01T03:58:14;11.33;;;7.60;;
9960;SDS011;5021;51.506;11.320;2023-03-01T04:00:41;10.47;;;7.43;;
9960;SDS011;5021;51.506;11.320;2023-03-01T04:03:07;10.03;;;7.37;;
9960;SDS011;5021;51.506;11.320;2023-03-01T04:05:33;8.40;;;7.00;;
9960;SDS011;5021;51.506;11.320;2023-03-01T04:07:59;9.90;;;7.07;;
9960;SDS011;5021;51.506;11.320;2023-03-01T04:10:33;13.07;;;8.40;;
9960;SDS011;5021;51.506;11.320;2023-03-01T04:12:59;11.03;;;7.70;;
9960;SDS011;5021;51.506;11.320;2023-03-01T04:15:25;12.07;;;8.13;;
9960;SDS011;5021;51.506;11.320;2023-03-01T04:17:52;14.53;;;8.10;;
9960;SDS011;5021;51.506;11.320;2023-03-01T04:20:19;10.83;;;7.70;;
9960;SDS011;5021;51.506;11.320;2023-03-01T04:22:49;9.37;;;7.33;;
9960;SDS011;5021;51.506;11.320;2023-03-01T04:25:15;10.97;;;8.07;;
9960;SDS011;5021;51.506;11.320;2023-03-01T04:27:41;9.57;;;7.63;;
9960;SDS011;5021;51.506;11.320;2023-03-01T04:30:07;10.33;;;7.53;;
9960;SDS011;5021;51.506;11.320;2023-03-01T04:32:34;10.93;;;7.83;;
9960;SDS011;5021;51.506;11.320;2023-03-01T04:35:00;11.13;;;8.40;;
9960;SDS011;5021;51.506;11.320;2023-03-01T04:37:26;10.83;;;8.23;;
9960;SDS011;5021;51.506;11.320;2023-03-01T04:39:52;12.10;;;8.17;;
9960;SDS011;5021;51.506;11.320;2023-03-01T04:42:18;12.27;;;8.30;;
9960;SDS011;5021;51.506;11.320;2023-03-01T04:44:45;10.97;;;8.23;;
9960;SDS011;5021;51.506;11.320;2023-03-01T04:47:11;12.60;;;8.37;;
9960;SDS011;5021;51.506;11.320;2023-03-01T04:49:38;11.80;;;7.80;;
9960;SDS011;5021;51.506;11.320;2023-03-01T04:52:04;11.70;;;8.40;;
9960;SDS011;5021;51.506;11.320;2023-03-01T04:54:31;11.73;;;8.00;;
9960;SDS011;5021;51.506;11.320;2023-03-01T04:56:57;11.67;;;8.53;;
9960;SDS011;5021;51.506;11.320;2023-03-01T04:59:23;12.37;;;8.00;;
9960;SDS011;5021;51.506;11.320;2023-03-01T05:01:53;11.47;;;8.03;;
9960;SDS011;5021;51.506;11.320;2023-03-01T05:04:23;11.07;;;7.93;;
9960;SDS011;5021;51.506;11.320;2023-03-01T05:06:49;10.57;;;7.70;;
9960;SDS011;5021;51.506;11.320;2023-03-01T05:09:15;10.03;;;7.77;;
9960;SDS011;5021;51.506;11.320;2023-03-01T05:11:41;11.77;;;7.97;;
9960;SDS011;5021;51.506;11.320;2023-03-01T05:14:07;11.37;;;7.80;;
9960;SDS011;5021;51.506;11.320;2023-03-01T05:16:33;14.17;;;8.30;;
9960;SDS011;5021;51.506;11.320;2023-03-01T05:19:00;10.07;;;7.97;;
9960;SDS011;5021;51.506;11.320;2023-03-01T05:21:36;11.13;;;8.73;;
9960;SDS011;5021;51.506;11.320;2023-03-01T05:24:22;10.47;;;7.33;;
9960;SDS011;5021;51.506;11.320;2023-03-01T05:26:48;11.00;;;9.10;;
9960;SDS011;5021;51.506;11.320;2023-03-01T05:29:13;10.90;;;7.53;;
9960;SDS011;5021;51.506;11.320;2023-03-01T05:31:39;11.47;;;8.40;;
9960;SDS011;5021;51.506;11.320;2023-03-01T05:34:05;12.57;;;9.10;;
9960;SDS011;5021;51.506;11.320;2023-03-01T05:36:31;11.07;;;7.80;;
9960;SDS011;5021;51.506;11.320;2023-03-01T05:38:57;11.10;;;7.90;;
9960;SDS011;5021;51.506;11.320;2023-03-01T05:41:23;11.57;;;8.77;;
9960;SDS011;5021;51.506;11.320;2023-03-01T05:43:49;12.90;;;8.93;;
9960;SDS011;5021;51.506;11.320;2023-03-01T05:46:15;12.40;;;9.13;;
9960;SDS011;5021;51.506;11.320;2023-03-01T05:48:41;12.40;;;9.10;;
9960;SDS011;5021;51.506;11.320;2023-03-01T05:51:07;12.43;;;8.93;;
9960;SDS011;5021;51.506;11.320;2023-03-01T05:53:33;14.17;;;10.20;;
9960;SDS011;5021;51.506;11.320;2023-03-01T05:55:58;15.07;;;10.13;;
9960;SDS011;5021;51.506;11.320;2023-03-01T05:58:25;12.33;;;9.93;;
9960;SDS011;5021;51.506;11.320;2023-03-01T06:00:51;16.57;;;10.37;;
9960;SDS011;5021;51.506;11.320;2023-03-01T06:03:17;12.53;;;9.50;;
9960;SDS011;5021;51.506;11.320;2023-03-01T06:05:43;15.07;;;9.07;;
9960;SDS011;5021;51.506;11.320;2023-03-01T06:08:10;11.83;;;9.03;;
9960;SDS011;5021;51.506;11.320;2023-03-01T06:10:36;13.30;;;9.67;;
9960;SDS011;5021;51.506;11.320;2023-03-01T06:13:02;12.73;;;9.23;;
9960;SDS011;5021;51.506;11.320;2023-03-01T06:15:29;13.80;;;9.90;;
9960;SDS011;5021;51.506;11.320;2023-03-01T06:17:55;15.77;;;9.37;;
9960;SDS011;5021;51.506;11.320;2023-03-01T06:20:25;13.33;;;9.60;;
9960;SDS011;5021;51.506;11.320;2023-03-01T06:22:51;14.63;;;10.17;;
9960;SDS011;5021;51.506;11.320;2023-03-01T06:25:18;12.97;;;9.60;;
9960;SDS011;5021;51.506;11.320;2023-03-01T06:27:44;12.93;;;9.77;;
9960;SDS011;5021;51.506;11.320;2023-03-01T06:30:10;14.60;;;9.93;;
9960;SDS011;5021;51.506;11.320;2023-03-01T06:32:37;16.63;;;11.00;;
9960;SDS011;5021;51.506;11.320;2023-03-01T06:35:07;14.70;;;9.67;;
9960;SDS011;5021;51.506;11.320;2023-03-01T06:37:33;16.60;;;10.33;;
9960;SDS011;5021;51.506;11.320;2023-03-01T06:40:00;15.23;;;9.53;;
9960;SDS011;5021;51.506;11.320;2023-03-01T06:42:29;14.90;;;10.10;;
9960;SDS011;5021;51.506;11.320;2023-03-01T06:44:55;13.63;;;9.73;;
9960;SDS011;5021;51.506;11.320;2023-03-01T06:47:21;15.20;;;10.43;;
9960;SDS011;5021;51.506;11.320;2023-03-01T06:49:47;16.37;;;10.07;;
9960;SDS011;5021;51.506;11.320;2023-03-01T06:52:13;13.00;;;9.40;;
9960;SDS011;5021;51.506;11.320;2023-03-01T06:54:39;14.53;;;9.63;;
9960;SDS011;5021;51.506;11.320;2023-03-01T06:57:05;14.93;;;10.10;;
9960;SDS011;5021;51.506;11.320;2023-03-01T06:59:30;13.37;;;10.50;;
9960;SDS011;5021;51.506;11.320;2023-03-01T07:01:56;15.13;;;10.27;;
9960;SDS011;5021;51.506;11.320;2023-03-01T07:04:22;11.70;;;9.83;;
9960;SDS011;5021;51.506;11.320;2023-03-01T07:06:48;14.00;;;9.73;;
9960;SDS011;5021;51.506;11.320;2023-03-01T07:09:20;14.27;;;10.10;;
9960;SDS011;5021;51.506;11.320;2023-03-01T07:11:46;14.40;;;10.40;;
9960;SDS011;5021;51.506;11.320;2023-03-01T07:14:12;12.83;;;9.77;;
9960;SDS011;5021;51.506;11.320;2023-03-01T07:16:39;15.53;;;10.27;;
9960;SDS011;5021;51.506;11.320;2023-03-01T07:19:04;16.60;;;11.43;;
9960;SDS011;5021;51.506;11.320;2023-03-01T07:21:31;17.90;;;11.00;;
9960;SDS011;5021;51.506;11.320;2023-03-01T07:23:57;14.20;;;10.20;;
9960;SDS011;5021;51.506;11.320;2023-03-01T07:26:23;13.37;;;10.30;;
9960;SDS011;5021;51.506;11.320;2023-03-01T07:28:48;15.20;;;10.40;;
9960;SDS011;5021;51.506;11.320;2023-03-01T07:31:14;15.37;;;10.37;;
9960;SDS011;5021;51.506;11.320;2023-03-01T07:33:40;14.53;;;10.50;;
9960;SDS011;5021;51.506;11.320;2023-03-01T07:36:06;14.23;;;9.57;;
9960;SDS011;5021;51.506;11.320;2023-03-01T07:38:32;15.20;;;10.93;;
9960;SDS011;5021;51.506;11.320;2023-03-01T07:40:59;14.50;;;11.20;;
9960;SDS011;5021;51.506;11.320;2023-03-01T07:43:25;17.37;;;12.03;;
9960;SDS011;5021;51.506;11.320;2023-03-01T07:45:51;15.73;;;11.30;;
9960;SDS011;5021;51.506;11.320;2023-03-01T07:48:17;15.87;;;11.13;;
9960;SDS011;5021;51.506;11.320;2023-03-01T07:50:43;16.63;;;10.07;;
9960;SDS011;5021;51.506;11.320;2023-03-01T07:53:09;18.23;;;10.40;;
9960;SDS011;5021;51.506;11.320;2023-03-01T07:55:36;13.20;;;10.00;;
9960;SDS011;5021;51.506;11.320;2023-03-01T07:58:02;13.57;;;9.60;;
9960;SDS011;5021;51.506;11.320;2023-03-01T08:00:28;14.50;;;10.07;;
9960;SDS011;5021;51.506;11.320;2023-03-01T08:02:54;13.17;;;10.03;;
9960;SDS011;5021;51.506;11.320;2023-03-01T08:05:20;13.73;;;9.87;;
9960;SDS011;5021;51.506;11.320;2023-03-01T08:07:47;11.83;;;9.10;;
9960;SDS011;5021;51.506;11.320;2023-03-01T08:10:12;12.57;;;9.47;;
9960;SDS011;5021;51.506;11.320;2023-03-01T08:12:38;13.30;;;10.00;;
9960;SDS011;5021;51.506;11.320;2023-03-01T08:15:04;12.53;;;9.90;;
9960;SDS011;5021;51.506;11.320;2023-03-01T08:17:31;12.90;;;9.70;;
9960;SDS011;5021;51.506;11.320;2023-03-01T08:19:56;12.70;;;9.47;;
9960;SDS011;5021;51.506;11.320;2023-03-01T08:22:22;11.67;;;8.80;;
9960;SDS011;5021;51.506;11.320;2023-03-01T08:24:48;12.67;;;9.30;;
9960;SDS011;5021;51.506;11.320;2023-03-01T08:27:15;14.67;;;10.37;;
9960;SDS011;5021;51.506;11.320;2023-03-01T08:29:41;11.73;;;8.57;;
9960;SDS011;5021;51.506;11.320;2023-03-01T08:32:07;14.67;;;10.90;;
9960;SDS011;5021;51.506;11.320;2023-03-01T08:34:32;12.87;;;9.50;;
9960;SDS011;5021;51.506;11.320;2023-03-01T08:37:00;11.70;;;8.73;;
9960;SDS011;5021;51.506;11.320;2023-03-01T08:39:26;10.10;;;8.07;;
9960;SDS011;5021;51.506;11.320;2023-03-01T08:41:52;12.63;;;8.10;;
9960;SDS011;5021;51.506;11.320;2023-03-01T08:44:18;11.07;;;8.30;;
9960;SDS011;5021;51.506;11.320;2023-03-01T08:46:45;10.30;;;7.63;;
9960;SDS011;5021;51.506;11.320;2023-03-01T08:49:15;12.33;;;7.93;;
9960;SDS011;5021;51.506;11.320;2023-03-01T08:51:42;11.53;;;8.03;;
9960;SDS011;5021;51.506;11.320;2023-03-01T08:54:12;12.00;;;8.23;;
9960;SDS011;5021;51.506;11.320;2023-03-01T08:56:39;13.00;;;8.50;;
9960;SDS011;5021;51.506;11.320;2023-03-01T08:59:05;9.80;;;7.17;;
9960;SDS011;5021;51.506;11.320;2023-03-01T09:01:31;10.83;;;7.50;;
9960;SDS011;5021;51.506;11.320;2023-03-01T09:03:57;11.23;;;7.63;;
9960;SDS011;5021;51.506;11.320;2023-03-01T09:06:23;11.30;;;7.80;;
9960;SDS011;5021;51.506;11.320;2023-03-01T09:08:49;10.33;;;7.90;;
9960;SDS011;5021;51.506;11.320;2023-03-01T09:11:18;8.93;;;7.00;;
9960;SDS011;5021;51.506;11.320;2023-03-01T09:13:44;9.43;;;7.33;;
9960;SDS011;5021;51.506;11.320;2023-03-01T09:16:11;10.53;;;8.00;;
9960;SDS011;5021;51.506;11.320;2023-03-01T09:18:37;13.93;;;9.67;;
9960;SDS011;5021;51.506;11.320;2023-03-01T09:21:14;10.07;;;7.93;;
9960;SDS011;5021;51.506;11.320;2023-03-01T09:23:41;12.53;;;8.77;;
9960;SDS011;5021;51.506;11.320;2023-03-01T09:26:07;17.00;;;9.90;;
9960;SDS011;5021;51.506;11.320;2023-03-01T09:28:34;11.07;;;8.47;;
9960;SDS011;5021;51.506;11.320;2023-03-01T09:31:00;9.23;;;7.50;;
9960;SDS011;5021;51.506;11.320;2023-03-01T09:33:27;10.07;;;8.10;;
9960;SDS011;5021;51.506;11.320;2023-03-01T09:36:00;13.03;;;9.03;;
9960;SDS011;5021;51.506;11.320;2023-03-01T09:38:26;12.07;;;8.00;;
9960;SDS011;5021;51.506;11.320;2023-03-01T09:40:52;10.63;;;7.70;;
9960;SDS011;5021;51.506;11.320;2023-03-01T09:43:27;9.70;;;7.40;;
9960;SDS011;5021;51.506;11.320;2023-03-01T09:45:55;14.77;;;8.37;;
9960;SDS011;5021;51.506;11.320;2023-03-01T09:48:23;15.47;;;8.33;;
9960;SDS011;5021;51.506;11.320;2023-03-01T09:50:51;10.87;;;7.47;;
9960;SDS011;5021;51.506;11.320;2023-03-01T09:53:26;8.27;;;6.70;;
9960;SDS011;5021;51.506;11.320;2023-03-01T09:56:09;9.30;;;6.97;;
9960;SDS011;5021;51.506;11.320;2023-03-01T09:58:45;12.57;;;7.87;;
9960;SDS011;5021;51.506;11.320;2023-03-01T10:01:25;10.77;;;7.70;;
9960;SDS011;5021;51.506;11.320;2023-03-01T10:04:10;11.30;;;7.90;;
9960;SDS011;5021;51.506;11.320;2023-03-01T10:06:38;9.63;;;7.57;;
9960;SDS011;5021;51.506;11.320;2023-03-01T10:09:07;12.23;;;8.60;;
9960;SDS011;5021;51.506;11.320;2023-03-01T10:11:41;10.73;;;7.23;;
9960;SDS011;5021;51.506;11.320;2023-03-01T10:16:48;10.37;;;7.40;;
9960;SDS011;5021;51.506;11.320;2023-03-01T10:19:27;10.33;;;7.27;;
9960;SDS011;5021;51.506;11.320;2023-03-01T10:21:57;12.17;;;7.70;;
9960;SDS011;5021;51.506;11.320;2023-03-01T10:24:24;11.17;;;7.60;;
9960;SDS011;5021;51.506;11.320;2023-03-01T10:26:54;11.00;;;7.50;;
9960;SDS011;5021;51.506;11.320;2023-03-01T10:29:23;11.43;;;8.20;;
9960;SDS011;5021;51.506;11.320;2023-03-01T10:31:51;12.17;;;7.97;;
9960;SDS011;5021;51.506;11.320;2023-03-01T10:34:25;12.73;;;9.57;;
9960;SDS011;5021;51.506;11.320;2023-03-01T10:37:01;10.37;;;8.20;;
9960;SDS011;5021;51.506;11.320;2023-03-01T10:39:27;12.63;;;7.77;;
9960;SDS011;5021;51.506;11.320;2023-03-01T10:41:54;11.60;;;7.70;;
9960;SDS011;5021;51.506;11.320;2023-03-01T10:44:35;12.10;;;8.50;;
9960;SDS011;5021;51.506;11.320;2023-03-01T10:47:01;9.83;;;8.20;;
9960;SDS011;5021;51.506;11.320;2023-03-01T10:49:27;11.33;;;8.37;;
9960;SDS011;5021;51.506;11.320;2023-03-01T10:51:53;11.40;;;8.30;;
9960;SDS011;5021;51.506;11.320;2023-03-01T10:54:20;11.30;;;8.40;;
9960;SDS011;5021;51.506;11.320;2023-03-01T10:56:57;11.17;;;8.57;;
9960;SDS011;5021;51.506;11.320;2023-03-01T11:04:27;11.90;;;9.33;;
9960;SDS011;5021;51.506;11.320;2023-03-01T11:07:02;21.97;;;9.33;;
9960;SDS011;5021;51.506;11.320;2023-03-01T11:09:33;12.13;;;8.67;;
9960;SDS011;5021;51.506;11.320;2023-03-01T11:12:11;13.53;;;8.53;;
9960;SDS011;5021;51.506;11.320;2023-03-01T11:14:39;10.13;;;7.90;;
9960;SDS011;5021;51.506;11.320;2023-03-01T11:19:37;11.10;;;8.40;;
9960;SDS011;5021;51.506;11.320;2023-03-01T11:22:12;10.37;;;7.60;;
9960;SDS011;5021;51.506;11.320;2023-03-01T11:24:41;14.13;;;8.30;;
9960;SDS011;5021;51.506;11.320;2023-03-01T11:27:13;10.93;;;8.20;;
9960;SDS011;5021;51.506;11.320;2023-03-01T11:29:41;10.90;;;7.53;;
9960;SDS011;5021;51.506;11.320;2023-03-01T11:32:08;10.23;;;7.93;;
9960;SDS011;5021;51.506;11.320;2023-03-01T11:34:49;10.87;;;8.40;;
9960;SDS011;5021;51.506;11.320;2023-03-01T11:40:11;11.23;;;8.33;;
9960;SDS011;5021;51.506;11.320;2023-03-01T11:42:42;11.40;;;8.10;;
9960;SDS011;5021;51.506;11.320;2023-03-01T11:45:10;9.73;;;7.43;;
9960;SDS011;5021;51.506;11.320;2023-03-01T11:47:46;12.30;;;7.63;;
9960;SDS011;5021;51.506;11.320;2023-03-01T11:50:19;10.83;;;8.03;;
9960;SDS011;5021;51.506;11.320;2023-03-01T11:52:48;10.57;;;7.53;;
9960;SDS011;5021;51.506;11.320;2023-03-01T11:55:36;11.70;;;8.03;;
9960;SDS011;5021;51.506;11.320;2023-03-01T12:06:09;10.37;;;7.83;;
9960;SDS011;5021;51.506;11.320;2023-03-01T12:08:46;12.67;;;7.33;;
9960;SDS011;5021;51.506;11.320;2023-03-01T12:11:24;8.53;;;6.67;;
9960;SDS011;5021;51.506;11.320;2023-03-01T12:24:17;7.97;;;6.70;;
9960;SDS011;5021;51.506;11.320;2023-03-01T12:26:52;9.27;;;6.30;;
9960;SDS011;5021;51.506;11.320;2023-03-01T12:29:31;10.67;;;6.57;;
9960;SDS011;5021;51.506;11.320;2023-03-01T12:39:51;8.83;;;6.27;;
9960;SDS011;5021;51.506;11.320;2023-03-01T12:42:31;9.50;;;6.57;;
9960;SDS011;5021;51.506;11.320;2023-03-01T12:45:06;6.87;;;5.73;;
9960;SDS011;5021;51.506;11.320;2023-03-01T12:50:20;6.97;;;5.97;;
9960;SDS011;5021;51.506;11.320;2023-03-01T12:52:49;8.27;;;6.67;;
9960;SDS011;5021;51.506;11.320;2023-03-01T12:58:24;8.87;;;7.10;;
9960;SDS011;5021;51.506;11.320;2023-03-01T13:06:02;9.20;;;7.60;;
9960;SDS011;5021;51.506;11.320;2023-03-01T13:08:45;9.23;;;6.93;;
9960;SDS011;5021;51.506;11.320;2023-03-01T13:11:22;8.60;;;6.97;;
9960;SDS011;5021;51.506;11.320;2023-03-01T13:13:49;8.73;;;6.60;;
9960;SDS011;5021;51.506;11.320;2023-03-01T13:19:08;9.77;;;6.67;;
9960;SDS011;5021;51.506;11.320;2023-03-01T13:21:43;8.40;;;6.67;;
9960;SDS011;5021;51.506;11.320;2023-03-01T13:24:23;9.13;;;7.30;;
9960;SDS011;5021;51.506;11.320;2023-03-01T13:34:50;6.10;;;5.27;;
9960;SDS011;5021;51.506;11.320;2023-03-01T13:37:18;7.70;;;5.30;;
9960;SDS011;5021;51.506;11.320;2023-03-01T13:39:45;7.13;;;4.87;;
9960;SDS011;5021;51.506;11.320;2023-03-01T13:42:31;7.57;;;5.57;;
9960;SDS011;5021;51.506;11.320;2023-03-01T13:44:57;9.03;;;6.50;;
9960;SDS011;5021;51.506;11.320;2023-03-01T13:47:24;8.37;;;6.03;;
9960;SDS011;5021;51.506;11.320;2023-03-01T13:50:00;6.87;;;5.57;;
9960;SDS011;5021;51.506;11.320;2023-03-01T13:52:32;8.00;;;5.93;;
9960;SDS011;5021;51.506;11.320;2023-03-01T13:55:00;7.03;;;5.23;;
9960;SDS011;5021;51.506;11.320;2023-03-01T13:57:33;7.80;;;5.53;;
9960;SDS011;5021;51.506;11.320;2023-03-01T14:00:00;9.37;;;5.87;;
9960;SDS011;5021;51.506;11.320;2023-03-01T14:02:25;8.20;;;5.20;;
9960;SDS011;5021;51.506;11.320;2023-03-01T14:04:58;12.23;;;6.93;;
9960;SDS011;5021;51.506;11.320;2023-03-01T14:07:25;7.60;;;5.13;;
9960;SDS011;5021;51.506;11.320;2023-03-01T14:09:55;5.90;;;4.80;;
9960;SDS011;5021;51.506;11.320;2023-03-01T14:12:25;7.33;;;5.63;;
9960;SDS011;5021;51.506;11.320;2023-03-01T14:15:06;6.17;;;5.00;;
9960;SDS011;5021;51.506;11.320;2023-03-01T14:20:10;6.23;;;5.07;;
9960;SDS011;5021;51.506;11.320;2023-03-01T14:22:37;7.17;;;5.20;;
9960;SDS011;5021;51.506;11.320;2023-03-01T14:25:16;6.73;;;4.73;;
9960;SDS011;5021;51.506;11.320;2023-03-01T14:27:42;5.17;;;4.30;;
9960;SDS011;5021;51.506;11.320;2023-03-01T14:30:19;5.27;;;4.43;;
9960;SDS011;5021;51.506;11.320;2023-03-01T14:35:37;7.83;;;5.00;;
9960;SDS011;5021;51.506;11.320;2023-03-01T14:38:03;6.20;;;5.33;;
9960;SDS011;5021;51.506;11.320;2023-03-01T14:40:34;6.60;;;5.03;;
9960;SDS011;5021;51.506;11.320;2023-03-01T14:43:01;7.53;;;5.47;;
9960;SDS011;5021;51.506;11.320;2023-03-01T14:45:28;6.70;;;5.40;;
9960;SDS011;5021;51.506;11.320;2023-03-01T14:47:55;8.33;;;6.40;;
9960;SDS011;5021;51.506;11.320;2023-03-01T14:50:28;8.50;;;6.20;;
9960;SDS011;5021;51.506;11.320;2023-03-01T14:52:55;9.87;;;5.60;;
9960;SDS011;5021;51.506;11.320;2023-03-01T14:55:26;9.40;;;6.47;;
9960;SDS011;5021;51.506;11.320;2023-03-01T14:57:53;8.23;;;6.50;;
9960;SDS011;5021;51.506;11.320;2023-03-01T15:00:23;7.57;;;5.77;;
9960;SDS011;5021;51.506;11.320;2023-03-01T15:02:50;7.00;;;5.70;;
9960;SDS011;5021;51.506;11.320;2023-03-01T15:05:18;8.30;;;6.70;;
9960;SDS011;5021;51.506;11.320;2023-03-01T15:07:48;7.57;;;6.30;;
9960;SDS011;5021;51.506;11.320;2023-03-01T15:10:34;7.77;;;5.93;;
9960;SDS011;5021;51.506;11.320;2023-03-01T15:16:05;7.33;;;5.57;;
9960;SDS011;5021;51.506;11.320;2023-03-01T15:18:32;9.97;;;7.43;;
9960;SDS011;5021;51.506;11.320;2023-03-01T15:21:06;8.03;;;6.40;;
9960;SDS011;5021;51.506;11.320;2023-03-01T15:23:33;8.77;;;6.57;;
9960;SDS011;5021;51.506;11.320;2023-03-01T15:25:59;9.50;;;6.40;;
9960;SDS011;5021;51.506;11.320;2023-03-01T15:28:33;8.20;;;5.80;;
9960;SDS011;5021;51.506;11.320;2023-03-01T15:31:01;8.63;;;6.30;;
9960;SDS011;5021;51.506;11.320;2023-03-01T15:33:29;8.63;;;6.00;;
9960;SDS011;5021;51.506;11.320;2023-03-01T15:35:57;9.40;;;5.80;;
9960;SDS011;5021;51.506;11.320;2023-03-01T15:38:36;8.33;;;5.63;;
9960;SDS011;5021;51.506;11.320;2023-03-01T15:41:19;7.83;;;5.93;;
9960;SDS011;5021;51.506;11.320;2023-03-01T15:43:47;8.57;;;6.10;;
9960;SDS011;5021;51.506;11.320;2023-03-01T15:46:25;7.40;;;5.90;;
9960;SDS011;5021;51.506;11.320;2023-03-01T15:48:52;6.90;;;5.50;;
9960;SDS011;5021;51.506;11.320;2023-03-01T15:51:21;7.97;;;5.30;;
9960;SDS011;5021;51.506;11.320;2023-03-01T15:53:49;6.53;;;5.37;;
9960;SDS011;5021;51.506;11.320;2023-03-01T15:56:15;9.17;;;6.93;;
9960;SDS011;5021;51.506;11.320;2023-03-01T15:58:42;8.27;;;5.80;;
9960;SDS011;5021;51.506;11.320;2023-03-01T16:01:11;5.83;;;4.93;;
9960;SDS011;5021;51.506;11.320;2023-03-01T16:03:38;9.27;;;5.63;;
9960;SDS011;5021;51.506;11.320;2023-03-01T16:06:04;6.17;;;5.37;;
9960;SDS011;5021;51.506;11.320;2023-03-01T16:08:30;7.03;;;5.20;;
9960;SDS011;5021;51.506;11.320;2023-03-01T16:10:56;8.53;;;5.20;;
9960;SDS011;5021;51.506;11.320;2023-03-01T16:13:22;7.20;;;4.97;;
9960;SDS011;5021;51.506;11.320;2023-03-01T16:15:50;8.70;;;5.87;;